Worth, West Virginia
Current Conditions -  °F | °C
As of 5:52 PM on Sunday 21 Dec 2014 (Local Time) from KBLF Reporting Station
Clear Clear  
Wind Chill: 37°   Ceiling: Unl
Heat Index: 40°   Visibility: 10mi
Dew Point: 29°   Wind: 5mph
Humidity: 65%   Direction: 140°SE
Pressure: 30.12"   Gusts: NA
Location:  37.41°N, 81.39°W
Report Text: KBLF 212252Z AUTO 14004KT 10SM CLR 04/M02 A3012 RMK AO2 SLP210 T00441017
Loading
Personal Weather Stations






























Interactive Weather Map New forecast layout! Learn more

10-Day Weather Forecast

Advertisements
Track Severe Weather on mobile